sensor_id;sensor_type;location;lat;lon;timestamp;P1;durP1;ratioP1;P2;durP2;ratioP2
4309;SDS011;2168;53.576;9.980;2023-03-01T00:00:07;6.50;;;4.60;;
4309;SDS011;2168;53.576;9.980;2023-03-01T00:02:32;5.90;;;3.90;;
4309;SDS011;2168;53.576;9.980;2023-03-01T00:04:57;6.73;;;4.33;;
4309;SDS011;2168;53.576;9.980;2023-03-01T00:07:22;5.90;;;4.23;;
4309;SDS011;2168;53.576;9.980;2023-03-01T00:09:47;7.00;;;4.47;;
4309;SDS011;2168;53.576;9.980;2023-03-01T00:12:13;10.00;;;4.20;;
4309;SDS011;2168;53.576;9.980;2023-03-01T00:14:38;7.43;;;4.43;;
4309;SDS011;2168;53.576;9.980;2023-03-01T00:17:03;8.80;;;4.30;;
4309;SDS011;2168;53.576;9.980;2023-03-01T00:19:28;6.73;;;4.03;;
4309;SDS011;2168;53.576;9.980;2023-03-01T00:21:54;4.17;;;3.77;;
4309;SDS011;2168;53.576;9.980;2023-03-01T00:24:19;6.30;;;4.30;;
4309;SDS011;2168;53.576;9.980;2023-03-01T00:26:44;5.57;;;4.30;;
4309;SDS011;2168;53.576;9.980;2023-03-01T00:29:09;7.00;;;4.60;;
4309;SDS011;2168;53.576;9.980;2023-03-01T00:31:35;6.40;;;4.10;;
4309;SDS011;2168;53.576;9.980;2023-03-01T00:34:02;4.57;;;3.50;;
4309;SDS011;2168;53.576;9.980;2023-03-01T00:36:29;7.23;;;4.13;;
4309;SDS011;2168;53.576;9.980;2023-03-01T00:38:54;7.40;;;4.80;;
4309;SDS011;2168;53.576;9.980;2023-03-01T00:41:20;5.20;;;4.10;;
4309;SDS011;2168;53.576;9.980;2023-03-01T00:43:47;4.30;;;3.90;;
4309;SDS011;2168;53.576;9.980;2023-03-01T00:46:13;8.80;;;4.30;;
4309;SDS011;2168;53.576;9.980;2023-03-01T00:48:39;6.20;;;3.77;;
4309;SDS011;2168;53.576;9.980;2023-03-01T00:51:08;5.67;;;4.43;;
4309;SDS011;2168;53.576;9.980;2023-03-01T00:53:34;7.30;;;5.00;;
4309;SDS011;2168;53.576;9.980;2023-03-01T00:56:00;8.77;;;4.13;;
4309;SDS011;2168;53.576;9.980;2023-03-01T00:58:25;7.93;;;4.43;;
4309;SDS011;2168;53.576;9.980;2023-03-01T01:00:51;7.53;;;5.20;;
4309;SDS011;2168;53.576;9.980;2023-03-01T01:03:17;8.00;;;4.83;;
4309;SDS011;2168;53.576;9.980;2023-03-01T01:05:42;7.60;;;4.80;;
4309;SDS011;2168;53.576;9.980;2023-03-01T01:08:07;8.80;;;4.53;;
4309;SDS011;2168;53.576;9.980;2023-03-01T01:10:33;5.97;;;4.17;;
4309;SDS011;2168;53.576;9.980;2023-03-01T01:12:59;4.73;;;3.73;;
4309;SDS011;2168;53.576;9.980;2023-03-01T01:15:24;6.70;;;4.13;;
4309;SDS011;2168;53.576;9.980;2023-03-01T01:17:49;6.70;;;4.30;;
4309;SDS011;2168;53.576;9.980;2023-03-01T01:20:15;11.73;;;4.13;;
4309;SDS011;2168;53.576;9.980;2023-03-01T01:22:41;5.13;;;4.00;;
4309;SDS011;2168;53.576;9.980;2023-03-01T01:25:06;5.43;;;4.27;;
4309;SDS011;2168;53.576;9.980;2023-03-01T01:27:31;6.47;;;4.20;;
4309;SDS011;2168;53.576;9.980;2023-03-01T01:29:57;6.33;;;4.00;;
4309;SDS011;2168;53.576;9.980;2023-03-01T01:32:22;5.00;;;4.27;;
4309;SDS011;2168;53.576;9.980;2023-03-01T01:34:47;6.63;;;5.00;;
4309;SDS011;2168;53.576;9.980;2023-03-01T01:37:12;5.63;;;4.70;;
4309;SDS011;2168;53.576;9.980;2023-03-01T01:39:37;5.17;;;4.00;;
4309;SDS011;2168;53.576;9.980;2023-03-01T01:42:02;4.83;;;4.03;;
4309;SDS011;2168;53.576;9.980;2023-03-01T01:44:28;10.30;;;6.03;;
4309;SDS011;2168;53.576;9.980;2023-03-01T01:46:54;10.20;;;4.63;;
4309;SDS011;2168;53.576;9.980;2023-03-01T01:49:37;6.03;;;4.53;;
4309;SDS011;2168;53.576;9.980;2023-03-01T01:54:37;10.30;;;5.00;;
4309;SDS011;2168;53.576;9.980;2023-03-01T01:57:06;5.00;;;4.50;;
4309;SDS011;2168;53.576;9.980;2023-03-01T01:59:32;6.13;;;4.70;;
4309;SDS011;2168;53.576;9.980;2023-03-01T02:01:59;6.20;;;4.20;;
4309;SDS011;2168;53.576;9.980;2023-03-01T02:04:25;5.23;;;4.23;;
4309;SDS011;2168;53.576;9.980;2023-03-01T02:07:32;5.93;;;4.57;;
4309;SDS011;2168;53.576;9.980;2023-03-01T02:09:38;6.10;;;4.37;;
4309;SDS011;2168;53.576;9.980;2023-03-01T02:12:04;6.07;;;4.30;;
4309;SDS011;2168;53.576;9.980;2023-03-01T02:14:30;4.63;;;4.20;;
4309;SDS011;2168;53.576;9.980;2023-03-01T02:16:55;3.60;;;3.30;;
4309;SDS011;2168;53.576;9.980;2023-03-01T02:19:28;4.80;;;4.10;;
4309;SDS011;2168;53.576;9.980;2023-03-01T02:24:42;6.63;;;4.80;;
4309;SDS011;2168;53.576;9.980;2023-03-01T02:27:13;8.03;;;4.70;;
4309;SDS011;2168;53.576;9.980;2023-03-01T02:29:38;6.73;;;4.33;;
4309;SDS011;2168;53.576;9.980;2023-03-01T02:32:03;7.80;;;4.27;;
4309;SDS011;2168;53.576;9.980;2023-03-01T02:34:29;5.80;;;4.17;;
4309;SDS011;2168;53.576;9.980;2023-03-01T02:37:17;8.03;;;3.97;;
4309;SDS011;2168;53.576;9.980;2023-03-01T02:39:48;4.90;;;3.57;;
4309;SDS011;2168;53.576;9.980;2023-03-01T02:42:16;4.20;;;3.43;;
4309;SDS011;2168;53.576;9.980;2023-03-01T02:44:43;4.53;;;3.60;;
4309;SDS011;2168;53.576;9.980;2023-03-01T02:47:09;6.27;;;4.40;;
4309;SDS011;2168;53.576;9.980;2023-03-01T02:49:35;6.57;;;4.00;;
4309;SDS011;2168;53.576;9.980;2023-03-01T02:57:29;4.13;;;3.30;;
4309;SDS011;2168;53.576;9.980;2023-03-01T02:59:56;4.10;;;3.50;;
4309;SDS011;2168;53.576;9.980;2023-03-01T03:02:26;3.87;;;3.57;;
4309;SDS011;2168;53.576;9.980;2023-03-01T03:05:04;7.50;;;4.07;;
4309;SDS011;2168;53.576;9.980;2023-03-01T03:07:31;7.47;;;4.10;;
4309;SDS011;2168;53.576;9.980;2023-03-01T03:09:56;4.30;;;3.90;;
4309;SDS011;2168;53.576;9.980;2023-03-01T03:12:21;4.67;;;3.80;;
4309;SDS011;2168;53.576;9.980;2023-03-01T03:14:46;7.00;;;4.40;;
4309;SDS011;2168;53.576;9.980;2023-03-01T03:17:11;5.23;;;4.37;;
4309;SDS011;2168;53.576;9.980;2023-03-01T03:19:36;4.83;;;3.70;;
4309;SDS011;2168;53.576;9.980;2023-03-01T03:22:02;4.57;;;3.37;;
4309;SDS011;2168;53.576;9.980;2023-03-01T03:24:27;5.03;;;4.30;;
4309;SDS011;2168;53.576;9.980;2023-03-01T03:27:03;4.20;;;3.30;;
4309;SDS011;2168;53.576;9.980;2023-03-01T03:29:29;7.43;;;3.90;;
4309;SDS011;2168;53.576;9.980;2023-03-01T03:31:54;4.97;;;3.97;;
4309;SDS011;2168;53.576;9.980;2023-03-01T03:34:19;5.23;;;3.60;;
4309;SDS011;2168;53.576;9.980;2023-03-01T03:36:44;4.27;;;3.87;;
4309;SDS011;2168;53.576;9.980;2023-03-01T03:39:09;4.90;;;3.70;;
4309;SDS011;2168;53.576;9.980;2023-03-01T03:41:34;3.80;;;3.50;;
4309;SDS011;2168;53.576;9.980;2023-03-01T03:44:00;3.70;;;3.40;;
4309;SDS011;2168;53.576;9.980;2023-03-01T03:46:25;5.73;;;3.60;;
4309;SDS011;2168;53.576;9.980;2023-03-01T03:48:51;5.47;;;3.60;;
4309;SDS011;2168;53.576;9.980;2023-03-01T03:51:16;4.43;;;3.10;;
4309;SDS011;2168;53.576;9.980;2023-03-01T03:53:42;8.00;;;3.67;;
4309;SDS011;2168;53.576;9.980;2023-03-01T03:56:08;5.13;;;4.10;;
4309;SDS011;2168;53.576;9.980;2023-03-01T03:58:33;3.73;;;3.43;;
4309;SDS011;2168;53.576;9.980;2023-03-01T04:00:58;4.73;;;3.10;;
4309;SDS011;2168;53.576;9.980;2023-03-01T04:03:25;3.27;;;2.97;;
4309;SDS011;2168;53.576;9.980;2023-03-01T04:05:51;3.73;;;3.30;;
4309;SDS011;2168;53.576;9.980;2023-03-01T04:08:17;4.17;;;3.40;;
4309;SDS011;2168;53.576;9.980;2023-03-01T04:10:45;4.37;;;3.07;;
4309;SDS011;2168;53.576;9.980;2023-03-01T04:13:13;4.27;;;3.57;;
4309;SDS011;2168;53.576;9.980;2023-03-01T04:15:39;2.80;;;2.60;;
4309;SDS011;2168;53.576;9.980;2023-03-01T04:18:04;3.37;;;3.13;;
4309;SDS011;2168;53.576;9.980;2023-03-01T04:20:30;3.53;;;3.20;;
4309;SDS011;2168;53.576;9.980;2023-03-01T04:23:00;3.13;;;2.67;;
4309;SDS011;2168;53.576;9.980;2023-03-01T04:25:35;4.57;;;3.23;;
4309;SDS011;2168;53.576;9.980;2023-03-01T04:28:00;3.03;;;2.83;;
4309;SDS011;2168;53.576;9.980;2023-03-01T04:30:25;3.27;;;2.97;;
4309;SDS011;2168;53.576;9.980;2023-03-01T04:32:50;3.23;;;2.93;;
4309;SDS011;2168;53.576;9.980;2023-03-01T04:35:16;3.70;;;2.97;;
4309;SDS011;2168;53.576;9.980;2023-03-01T04:37:41;4.13;;;3.00;;
4309;SDS011;2168;53.576;9.980;2023-03-01T04:40:06;2.53;;;2.33;;
4309;SDS011;2168;53.576;9.980;2023-03-01T04:42:41;4.40;;;3.20;;
4309;SDS011;2168;53.576;9.980;2023-03-01T04:45:07;2.90;;;2.70;;
4309;SDS011;2168;53.576;9.980;2023-03-01T04:47:37;4.50;;;3.00;;
4309;SDS011;2168;53.576;9.980;2023-03-01T04:50:03;4.03;;;2.93;;
4309;SDS011;2168;53.576;9.980;2023-03-01T04:52:28;3.77;;;3.43;;
4309;SDS011;2168;53.576;9.980;2023-03-01T04:54:53;3.93;;;3.37;;
4309;SDS011;2168;53.576;9.980;2023-03-01T04:57:19;2.93;;;2.43;;
4309;SDS011;2168;53.576;9.980;2023-03-01T04:59:45;3.70;;;3.40;;
4309;SDS011;2168;53.576;9.980;2023-03-01T05:02:10;3.83;;;2.63;;
4309;SDS011;2168;53.576;9.980;2023-03-01T05:04:35;3.80;;;3.40;;
4309;SDS011;2168;53.576;9.980;2023-03-01T05:07:00;3.20;;;2.90;;
4309;SDS011;2168;53.576;9.980;2023-03-01T05:09:25;4.60;;;3.43;;
4309;SDS011;2168;53.576;9.980;2023-03-01T05:11:50;6.27;;;2.90;;
4309;SDS011;2168;53.576;9.980;2023-03-01T05:14:16;4.10;;;3.10;;
4309;SDS011;2168;53.576;9.980;2023-03-01T05:16:42;3.50;;;3.20;;
4309;SDS011;2168;53.576;9.980;2023-03-01T05:19:07;3.90;;;3.07;;
4309;SDS011;2168;53.576;9.980;2023-03-01T05:21:40;4.20;;;2.83;;
4309;SDS011;2168;53.576;9.980;2023-03-01T05:24:25;5.60;;;3.47;;
4309;SDS011;2168;53.576;9.980;2023-03-01T05:26:51;3.73;;;3.43;;
4309;SDS011;2168;53.576;9.980;2023-03-01T05:29:17;4.03;;;3.63;;
4309;SDS011;2168;53.576;9.980;2023-03-01T05:31:44;4.20;;;3.03;;
4309;SDS011;2168;53.576;9.980;2023-03-01T05:34:09;3.53;;;3.23;;
4309;SDS011;2168;53.576;9.980;2023-03-01T05:36:37;4.33;;;3.60;;
4309;SDS011;2168;53.576;9.980;2023-03-01T05:39:03;3.43;;;3.13;;
4309;SDS011;2168;53.576;9.980;2023-03-01T05:41:28;4.30;;;3.37;;
4309;SDS011;2168;53.576;9.980;2023-03-01T05:43:53;4.47;;;3.17;;
4309;SDS011;2168;53.576;9.980;2023-03-01T05:46:19;5.13;;;3.30;;
4309;SDS011;2168;53.576;9.980;2023-03-01T05:48:44;4.10;;;3.63;;
4309;SDS011;2168;53.576;9.980;2023-03-01T05:51:09;5.30;;;4.23;;
4309;SDS011;2168;53.576;9.980;2023-03-01T05:53:35;3.87;;;3.53;;
4309;SDS011;2168;53.576;9.980;2023-03-01T05:56:02;5.07;;;3.80;;
4309;SDS011;2168;53.576;9.980;2023-03-01T05:58:27;5.20;;;4.47;;
4309;SDS011;2168;53.576;9.980;2023-03-01T06:00:52;5.70;;;4.13;;
4309;SDS011;2168;53.576;9.980;2023-03-01T06:03:18;4.20;;;3.23;;
4309;SDS011;2168;53.576;9.980;2023-03-01T06:05:43;3.63;;;3.23;;
4309;SDS011;2168;53.576;9.980;2023-03-01T06:08:09;5.03;;;3.37;;
4309;SDS011;2168;53.576;9.980;2023-03-01T06:10:34;4.47;;;2.80;;
4309;SDS011;2168;53.576;9.980;2023-03-01T06:13:00;3.83;;;3.40;;
4309;SDS011;2168;53.576;9.980;2023-03-01T06:15:25;6.27;;;3.50;;
4309;SDS011;2168;53.576;9.980;2023-03-01T06:17:50;3.53;;;3.20;;
4309;SDS011;2168;53.576;9.980;2023-03-01T06:20:17;7.63;;;3.70;;
4309;SDS011;2168;53.576;9.980;2023-03-01T06:22:43;5.10;;;2.80;;
4309;SDS011;2168;53.576;9.980;2023-03-01T06:25:08;4.33;;;2.70;;
4309;SDS011;2168;53.576;9.980;2023-03-01T06:27:34;8.47;;;2.97;;
4309;SDS011;2168;53.576;9.980;2023-03-01T06:29:59;4.73;;;3.60;;
4309;SDS011;2168;53.576;9.980;2023-03-01T06:32:24;8.17;;;3.33;;
4309;SDS011;2168;53.576;9.980;2023-03-01T06:34:49;4.70;;;3.60;;
4309;SDS011;2168;53.576;9.980;2023-03-01T06:37:14;3.93;;;3.30;;
4309;SDS011;2168;53.576;9.980;2023-03-01T06:39:40;6.17;;;3.60;;
4309;SDS011;2168;53.576;9.980;2023-03-01T06:42:05;5.60;;;4.03;;
4309;SDS011;2168;53.576;9.980;2023-03-01T06:44:32;3.20;;;2.80;;
4309;SDS011;2168;53.576;9.980;2023-03-01T06:46:57;3.30;;;3.03;;
4309;SDS011;2168;53.576;9.980;2023-03-01T06:49:22;5.37;;;3.30;;
4309;SDS011;2168;53.576;9.980;2023-03-01T06:51:47;9.77;;;3.70;;
4309;SDS011;2168;53.576;9.980;2023-03-01T06:54:12;10.50;;;4.07;;
4309;SDS011;2168;53.576;9.980;2023-03-01T06:56:38;6.10;;;3.63;;
4309;SDS011;2168;53.576;9.980;2023-03-01T06:59:03;6.43;;;3.90;;
4309;SDS011;2168;53.576;9.980;2023-03-01T07:01:29;8.00;;;3.63;;
4309;SDS011;2168;53.576;9.980;2023-03-01T07:03:55;4.73;;;3.50;;
4309;SDS011;2168;53.576;9.980;2023-03-01T07:06:20;8.23;;;4.23;;
4309;SDS011;2168;53.576;9.980;2023-03-01T07:08:45;3.83;;;3.43;;
4309;SDS011;2168;53.576;9.980;2023-03-01T07:11:11;6.17;;;3.87;;
4309;SDS011;2168;53.576;9.980;2023-03-01T07:13:36;13.07;;;3.63;;
4309;SDS011;2168;53.576;9.980;2023-03-01T07:16:01;6.10;;;3.93;;
4309;SDS011;2168;53.576;9.980;2023-03-01T07:18:26;6.03;;;4.10;;
4309;SDS011;2168;53.576;9.980;2023-03-01T07:20:52;9.50;;;3.90;;
4309;SDS011;2168;53.576;9.980;2023-03-01T07:23:17;6.70;;;3.97;;
4309;SDS011;2168;53.576;9.980;2023-03-01T07:25:42;6.27;;;4.90;;
4309;SDS011;2168;53.576;9.980;2023-03-01T07:28:07;5.87;;;4.03;;
4309;SDS011;2168;53.576;9.980;2023-03-01T07:30:33;8.13;;;4.00;;
4309;SDS011;2168;53.576;9.980;2023-03-01T07:32:58;9.70;;;5.00;;
4309;SDS011;2168;53.576;9.980;2023-03-01T07:35:24;6.47;;;4.53;;
4309;SDS011;2168;53.576;9.980;2023-03-01T07:37:50;9.57;;;5.60;;
4309;SDS011;2168;53.576;9.980;2023-03-01T07:40:15;11.20;;;4.47;;
4309;SDS011;2168;53.576;9.980;2023-03-01T07:42:40;4.93;;;4.50;;
4309;SDS011;2168;53.576;9.980;2023-03-01T07:45:05;7.40;;;4.60;;
4309;SDS011;2168;53.576;9.980;2023-03-01T07:47:31;13.40;;;4.97;;
4309;SDS011;2168;53.576;9.980;2023-03-01T07:49:57;11.10;;;5.17;;
4309;SDS011;2168;53.576;9.980;2023-03-01T07:52:22;12.67;;;5.30;;
4309;SDS011;2168;53.576;9.980;2023-03-01T07:54:47;12.70;;;5.10;;
4309;SDS011;2168;53.576;9.980;2023-03-01T07:57:13;8.90;;;5.70;;
4309;SDS011;2168;53.576;9.980;2023-03-01T07:59:38;11.23;;;5.63;;
4309;SDS011;2168;53.576;9.980;2023-03-01T08:02:03;6.77;;;5.50;;
4309;SDS011;2168;53.576;9.980;2023-03-01T08:04:28;11.53;;;6.00;;
4309;SDS011;2168;53.576;9.980;2023-03-01T08:06:54;8.80;;;5.80;;
4309;SDS011;2168;53.576;9.980;2023-03-01T08:09:19;11.40;;;6.07;;
4309;SDS011;2168;53.576;9.980;2023-03-01T08:11:44;10.40;;;6.80;;
4309;SDS011;2168;53.576;9.980;2023-03-01T08:14:09;8.50;;;5.80;;
4309;SDS011;2168;53.576;9.980;2023-03-01T08:16:35;10.93;;;7.03;;
4309;SDS011;2168;53.576;9.980;2023-03-01T08:19:07;11.67;;;7.07;;
4309;SDS011;2168;53.576;9.980;2023-03-01T08:21:33;9.20;;;7.10;;
4309;SDS011;2168;53.576;9.980;2023-03-01T08:23:59;9.37;;;6.90;;
4309;SDS011;2168;53.576;9.980;2023-03-01T08:26:25;10.23;;;7.50;;
4309;SDS011;2168;53.576;9.980;2023-03-01T08:28:50;12.13;;;6.80;;
4309;SDS011;2168;53.576;9.980;2023-03-01T08:33:44;8.93;;;6.63;;
4309;SDS011;2168;53.576;9.980;2023-03-01T08:36:09;12.73;;;7.60;;
4309;SDS011;2168;53.576;9.980;2023-03-01T08:38:35;10.03;;;7.50;;
4309;SDS011;2168;53.576;9.980;2023-03-01T08:41:00;11.03;;;7.50;;
4309;SDS011;2168;53.576;9.980;2023-03-01T08:43:26;11.73;;;8.10;;
4309;SDS011;2168;53.576;9.980;2023-03-01T08:45:51;17.40;;;8.00;;
4309;SDS011;2168;53.576;9.980;2023-03-01T08:48:16;12.10;;;8.13;;
4309;SDS011;2168;53.576;9.980;2023-03-01T08:50:41;10.70;;;7.90;;
4309;SDS011;2168;53.576;9.980;2023-03-01T08:53:07;12.83;;;9.10;;
4309;SDS011;2168;53.576;9.980;2023-03-01T08:55:32;11.73;;;8.47;;
4309;SDS011;2168;53.576;9.980;2023-03-01T08:57:57;11.90;;;8.80;;
4309;SDS011;2168;53.576;9.980;2023-03-01T09:00:23;28.23;;;9.63;;
4309;SDS011;2168;53.576;9.980;2023-03-01T09:02:49;15.53;;;9.53;;
4309;SDS011;2168;53.576;9.980;2023-03-01T09:05:15;11.80;;;7.93;;
4309;SDS011;2168;53.576;9.980;2023-03-01T09:07:40;17.87;;;10.30;;
4309;SDS011;2168;53.576;9.980;2023-03-01T09:10:05;14.53;;;8.70;;
4309;SDS011;2168;53.576;9.980;2023-03-01T09:12:30;17.57;;;8.70;;
4309;SDS011;2168;53.576;9.980;2023-03-01T09:14:56;18.40;;;9.17;;
4309;SDS011;2168;53.576;9.980;2023-03-01T09:17:21;15.03;;;9.63;;
4309;SDS011;2168;53.576;9.980;2023-03-01T09:19:46;12.17;;;8.70;;
4309;SDS011;2168;53.576;9.980;2023-03-01T09:22:11;14.80;;;10.60;;
4309;SDS011;2168;53.576;9.980;2023-03-01T09:24:36;14.27;;;9.07;;
4309;SDS011;2168;53.576;9.980;2023-03-01T09:27:02;11.53;;;9.20;;
4309;SDS011;2168;53.576;9.980;2023-03-01T09:29:27;16.60;;;9.50;;
4309;SDS011;2168;53.576;9.980;2023-03-01T09:31:53;19.60;;;10.63;;
4309;SDS011;2168;53.576;9.980;2023-03-01T09:34:20;12.00;;;9.43;;
4309;SDS011;2168;53.576;9.980;2023-03-01T09:36:48;12.80;;;10.37;;
4309;SDS011;2168;53.576;9.980;2023-03-01T09:39:13;14.73;;;9.03;;
4309;SDS011;2168;53.576;9.980;2023-03-01T09:44:49;15.23;;;9.83;;
4309;SDS011;2168;53.576;9.980;2023-03-01T09:46:56;13.20;;;9.23;;
4309;SDS011;2168;53.576;9.980;2023-03-01T09:49:23;13.20;;;9.67;;
4309;SDS011;2168;53.576;9.980;2023-03-01T09:54:29;12.00;;;7.97;;
4309;SDS011;2168;53.576;9.980;2023-03-01T09:59:28;11.83;;;9.27;;
4309;SDS011;2168;53.576;9.980;2023-03-01T10:04:41;13.70;;;10.03;;
4309;SDS011;2168;53.576;9.980;2023-03-01T10:09:36;13.73;;;8.73;;
4309;SDS011;2168;53.576;9.980;2023-03-01T10:12:02;12.47;;;7.77;;
4309;SDS011;2168;53.576;9.980;2023-03-01T10:14:51;15.20;;;8.80;;
4309;SDS011;2168;53.576;9.980;2023-03-01T10:20:33;14.93;;;8.50;;
4309;SDS011;2168;53.576;9.980;2023-03-01T10:22:51;10.90;;;8.23;;
4309;SDS011;2168;53.576;9.980;2023-03-01T10:25:26;19.93;;;9.40;;
4309;SDS011;2168;53.576;9.980;2023-03-01T10:27:54;14.20;;;8.27;;
4309;SDS011;2168;53.576;9.980;2023-03-01T10:30:35;13.73;;;8.73;;
4309;SDS011;2168;53.576;9.980;2023-03-01T10:33:03;12.17;;;8.83;;
4309;SDS011;2168;53.576;9.980;2023-03-01T10:35:33;8.10;;;6.60;;
4309;SDS011;2168;53.576;9.980;2023-03-01T10:38:09;11.23;;;8.23;;
4309;SDS011;2168;53.576;9.980;2023-03-01T10:40:35;9.23;;;7.73;;
4309;SDS011;2168;53.576;9.980;2023-03-01T10:43:01;12.43;;;8.37;;
4309;SDS011;2168;53.576;9.980;2023-03-01T10:45:36;11.23;;;8.30;;
4309;SDS011;2168;53.576;9.980;2023-03-01T10:48:08;11.00;;;7.57;;
4309;SDS011;2168;53.576;9.980;2023-03-01T10:50:36;10.50;;;8.00;;
4309;SDS011;2168;53.576;9.980;2023-03-01T10:53:03;9.20;;;6.97;;
4309;SDS011;2168;53.576;9.980;2023-03-01T10:55:38;10.57;;;7.37;;
4309;SDS011;2168;53.576;9.980;2023-03-01T10:58:08;8.87;;;7.17;;
4309;SDS011;2168;53.576;9.980;2023-03-01T11:00:33;8.73;;;6.57;;
4309;SDS011;2168;53.576;9.980;2023-03-01T11:03:11;10.00;;;7.33;;
4309;SDS011;2168;53.576;9.980;2023-03-01T11:05:37;10.73;;;6.80;;
4309;SDS011;2168;53.576;9.980;2023-03-01T11:08:14;10.67;;;7.83;;
4309;SDS011;2168;53.576;9.980;2023-03-01T11:10:39;9.87;;;7.20;;
4309;SDS011;2168;53.576;9.980;2023-03-01T11:13:08;9.53;;;7.40;;
4309;SDS011;2168;53.576;9.980;2023-03-01T11:15:39;11.83;;;7.67;;
4309;SDS011;2168;53.576;9.980;2023-03-01T11:18:04;12.37;;;8.57;;
4309;SDS011;2168;53.576;9.980;2023-03-01T11:20:31;12.80;;;8.10;;
4309;SDS011;2168;53.576;9.980;2023-03-01T11:22:58;9.60;;;7.50;;
4309;SDS011;2168;53.576;9.980;2023-03-01T11:25:29;10.70;;;7.60;;
4309;SDS011;2168;53.576;9.980;2023-03-01T11:27:56;11.40;;;8.00;;
4309;SDS011;2168;53.576;9.980;2023-03-01T11:30:27;10.63;;;7.30;;
4309;SDS011;2168;53.576;9.980;2023-03-01T11:35:23;9.60;;;7.40;;
4309;SDS011;2168;53.576;9.980;2023-03-01T11:37:59;10.47;;;7.40;;
4309;SDS011;2168;53.576;9.980;2023-03-01T11:40:35;13.50;;;6.40;;
4309;SDS011;2168;53.576;9.980;2023-03-01T11:51:02;5.53;;;4.93;;
4309;SDS011;2168;53.576;9.980;2023-03-01T12:04:11;4.30;;;3.77;;
4309;SDS011;2168;53.576;9.980;2023-03-01T12:06:55;5.20;;;4.70;;
4309;SDS011;2168;53.576;9.980;2023-03-01T12:12:26;4.53;;;4.13;;
4309;SDS011;2168;53.576;9.980;2023-03-01T12:14:58;5.40;;;4.90;;
4309;SDS011;2168;53.576;9.980;2023-03-01T12:17:32;7.17;;;6.23;;
4309;SDS011;2168;53.576;9.980;2023-03-01T12:22:32;5.20;;;4.80;;
4309;SDS011;2168;53.576;9.980;2023-03-01T12:27:29;6.27;;;5.43;;
4309;SDS011;2168;53.576;9.980;2023-03-01T12:32:40;6.20;;;5.60;;
4309;SDS011;2168;53.576;9.980;2023-03-01T12:40:31;5.50;;;5.00;;
4309;SDS011;2168;53.576;9.980;2023-03-01T12:43:10;5.17;;;4.67;;
4309;SDS011;2168;53.576;9.980;2023-03-01T12:48:29;4.80;;;4.40;;
4309;SDS011;2168;53.576;9.980;2023-03-01T12:50:57;4.53;;;4.23;;
4309;SDS011;2168;53.576;9.980;2023-03-01T12:53:34;5.93;;;5.27;;
4309;SDS011;2168;53.576;9.980;2023-03-01T12:56:07;6.53;;;5.27;;
4309;SDS011;2168;53.576;9.980;2023-03-01T13:06:59;11.13;;;5.60;;
4309;SDS011;2168;53.576;9.980;2023-03-01T13:09:30;7.00;;;6.30;;
4309;SDS011;2168;53.576;9.980;2023-03-01T13:11:56;6.47;;;5.97;;
4309;SDS011;2168;53.576;9.980;2023-03-01T13:16:48;6.63;;;5.93;;
4309;SDS011;2168;53.576;9.980;2023-03-01T13:19:17;7.40;;;6.70;;
4309;SDS011;2168;53.576;9.980;2023-03-01T13:21:44;6.37;;;5.77;;
4309;SDS011;2168;53.576;9.980;2023-03-01T13:29:55;7.13;;;6.43;;
4309;SDS011;2168;53.576;9.980;2023-03-01T13:34:54;7.13;;;6.40;;
4309;SDS011;2168;53.576;9.980;2023-03-01T13:37:23;9.03;;;7.77;;
4309;SDS011;2168;53.576;9.980;2023-03-01T13:39:50;10.27;;;6.70;;
4309;SDS011;2168;53.576;9.980;2023-03-01T13:44:57;6.77;;;5.87;;
4309;SDS011;2168;53.576;9.980;2023-03-01T13:47:22;8.40;;;6.60;;
4309;SDS011;2168;53.576;9.980;2023-03-01T13:49:57;7.20;;;6.50;;
4309;SDS011;2168;53.576;9.980;2023-03-01T13:54:52;7.40;;;6.27;;
4309;SDS011;2168;53.576;9.980;2023-03-01T13:57:20;7.70;;;6.33;;
4309;SDS011;2168;53.576;9.980;2023-03-01T13:59:47;7.07;;;6.37;;
4309;SDS011;2168;53.576;9.980;2023-03-01T14:02:12;10.70;;;8.20;;
4309;SDS011;2168;53.576;9.980;2023-03-01T14:04:37;6.93;;;6.30;;
4309;SDS011;2168;53.576;9.980;2023-03-01T14:09:34;6.63;;;6.00;;
4309;SDS011;2168;53.576;9.980;2023-03-01T14:19:56;7.03;;;6.40;;
4309;SDS011;2168;53.576;9.980;2023-03-01T14:22:34;6.93;;;6.33;;
4309;SDS011;2168;53.576;9.980;2023-03-01T14:25:02;9.10;;;6.80;;
4309;SDS011;2168;53.576;9.980;2023-03-01T14:27:35;6.63;;;6.00;;
4309;SDS011;2168;53.576;9.980;2023-03-01T14:30:02;6.50;;;6.00;;
4309;SDS011;2168;53.576;9.980;2023-03-01T14:32:28;6.87;;;6.17;;
4309;SDS011;2168;53.576;9.980;2023-03-01T14:34:54;7.17;;;6.47;;
4309;SDS011;2168;53.576;9.980;2023-03-01T14:37:22;8.47;;;7.57;;
4309;SDS011;2168;53.576;9.980;2023-03-01T14:39:47;7.40;;;6.80;;
4309;SDS011;2168;53.576;9.980;2023-03-01T14:42:13;7.13;;;6.53;;
4309;SDS011;2168;53.576;9.980;2023-03-01T14:44:40;7.23;;;6.53;;
4309;SDS011;2168;53.576;9.980;2023-03-01T14:47:05;7.20;;;6.50;;
4309;SDS011;2168;53.576;9.980;2023-03-01T14:49:31;6.77;;;6.17;;
4309;SDS011;2168;53.576;9.980;2023-03-01T14:54:27;7.17;;;6.47;;
4309;SDS011;2168;53.576;9.980;2023-03-01T14:56:57;7.30;;;6.70;;
4309;SDS011;2168;53.576;9.980;2023-03-01T14:59:23;8.40;;;6.80;;
4309;SDS011;2168;53.576;9.980;2023-03-01T15:01:49;7.27;;;6.60;;
4309;SDS011;2168;53.576;9.980;2023-03-01T15:04:15;6.70;;;6.13;;
4309;SDS011;2168;53.576;9.980;2023-03-01T15:06:41;7.50;;;6.73;;
4309;SDS011;2168;53.576;9.980;2023-03-01T15:09:06;7.73;;;6.93;;
4309;SDS011;2168;53.576;9.980;2023-03-01T15:11:32;7.80;;;6.67;;
4309;SDS011;2168;53.576;9.980;2023-03-01T15:13:57;7.83;;;6.60;;
4309;SDS011;2168;53.576;9.980;2023-03-01T15:16:27;7.47;;;6.77;;
4309;SDS011;2168;53.576;9.980;2023-03-01T15:18:54;7.93;;;6.60;;
4309;SDS011;2168;53.576;9.980;2023-03-01T15:21:25;7.50;;;6.80;;
4309;SDS011;2168;53.576;9.980;2023-03-01T15:23:53;7.63;;;6.57;;
4309;SDS011;2168;53.576;9.980;2023-03-01T15:26:23;8.73;;;6.83;;
4309;SDS011;2168;53.576;9.980;2023-03-01T15:28:50;8.80;;;6.90;;
4309;SDS011;2168;53.576;9.980;2023-03-01T15:31:22;7.60;;;6.90;;
4309;SDS011;2168;53.576;9.980;2023-03-01T15:33:48;7.30;;;6.60;;
4309;SDS011;2168;53.576;9.980;2023-03-01T15:36:35;7.70;;;7.00;;
4309;SDS011;2168;53.576;9.980;2023-03-01T15:39:02;7.00;;;6.40;;
4309;SDS011;2168;53.576;9.980;2023-03-01T15:41:47;13.00;;;7.23;;
4309;SDS011;2168;53.576;9.980;2023-03-01T15:44:27;10.20;;;7.10;;
4309;SDS011;2168;53.576;9.980;2023-03-01T15:46:52;9.30;;;7.80;;
4309;SDS011;2168;53.576;9.980;2023-03-01T15:51:50;12.43;;;9.03;;
4309;SDS011;2168;53.576;9.980;2023-03-01T15:54:18;9.07;;;8.17;;
4309;SDS011;2168;53.576;9.980;2023-03-01T15:56:44;9.33;;;8.30;;
4309;SDS011;2168;53.576;9.980;2023-03-01T15:59:09;9.87;;;8.87;;
4309;SDS011;2168;53.576;9.980;2023-03-01T16:01:36;13.83;;;8.93;;
4309;SDS011;2168;53.576;9.980;2023-03-01T16:04:02;14.10;;;8.73;;
4309;SDS011;2168;53.576;9.980;2023-03-01T16:06:27;9.43;;;8.00;;
4309;SDS011;2168;53.576;9.980;2023-03-01T16:08:52;10.80;;;9.40;;
4309;SDS011;2168;53.576;9.980;2023-03-01T16:11:18;11.47;;;9.47;;
4309;SDS011;2168;53.576;9.980;2023-03-01T16:13:44;10.00;;;8.33;;
4309;SDS011;2168;53.576;9.980;2023-03-01T16:16:10;13.50;;;9.87;;
4309;SDS011;2168;53.576;9.980;2023-03-01T16:18:37;11.97;;;8.30;;
4309;SDS011;2168;53.576;9.980;2023-03-01T16:21:03;10.43;;;8.50;;
4309;SDS011;2168;53.576;9.980;2023-03-01T16:23:28;12.83;;;8.90;;
4309;SDS011;2168;53.576;9.980;2023-03-01T16:25:53;10.50;;;7.63;;
4309;SDS011;2168;53.576;9.980;2023-03-01T16:28:18;9.40;;;7.80;;
4309;SDS011;2168;53.576;9.980;2023-03-01T16:30:46;9.40;;;8.33;;
4309;SDS011;2168;53.576;9.980;2023-03-01T16:33:15;11.07;;;8.10;;
4309;SDS011;2168;53.576;9.980;2023-03-01T16:35:40;10.00;;;7.77;;
4309;SDS011;2168;53.576;9.980;2023-03-01T16:38:06;12.40;;;9.17;;
4309;SDS011;2168;53.576;9.980;2023-03-01T16:40:31;12.60;;;7.67;;
4309;SDS011;2168;53.576;9.980;2023-03-01T16:42:56;9.23;;;7.30;;
4309;SDS011;2168;53.576;9.980;2023-03-01T16:45:24;10.17;;;7.00;;
4309;SDS011;2168;53.576;9.980;2023-03-01T16:47:49;7.73;;;6.53;;
4309;SDS011;2168;53.576;9.980;2023-03-01T16:50:15;7.67;;;6.83;;
4309;SDS011;2168;53.576;9.980;2023-03-01T16:52:40;9.47;;;7.50;;
4309;SDS011;2168;53.576;9.980;2023-03-01T16:55:06;11.63;;;8.77;;
4309;SDS011;2168;53.576;9.980;2023-03-01T16:57:33;11.40;;;8.10;;
4309;SDS011;2168;53.576;9.980;2023-03-01T16:59:59;12.40;;;9.03;;